Data for 12/14/2007

Time Sea-Level Adjusted Pressure Absolute Pressure Temperature Relative Humidity Dew Point   
(mb) (inHg) (mb) (inHg) (C) (F) (%) (C) (F)
00:05 1020 30.12 849 25.07 -5.3 22.5 65 -10.8 12.5
00:10 1020 30.12 849 25.07 -5.3 22.5 66 -10.7 12.8
00:15 1020 30.12 849 25.07 -5.2 22.6 65 -10.8 12.6
00:20 1020 30.12 849 25.07 -5.3 22.4 67 -10.5 13
00:25 1020 30.12 849 25.07 -5.3 22.5 67 -10.5 13.1
00:30 1020 30.12 849 25.07 -5.3 22.5 68 -10.3 13.5
00:35 1020 30.12 849 25.07 -5.4 22.4 68 -10.4 13.3
00:40 1020 30.12 849 25.07 -5.4 22.4 68 -10.4 13.2
00:45 1020 30.12 849 25.07 -5.4 22.2 68 -10.5 13.2
00:50 1020 30.12 849 25.07 -5.5 22.1 66 -10.8 12.5
00:55 1020 30.12 849 25.07 -5.4 22.3 63 -11.3 11.6
01:00 1020 30.12 849 25.07 -5.3 22.5 63 -11.2 11.9
01:05 1020 30.12 849 25.07 -5.4 22.3 64 -11.2 11.8
01:10 1020 30.12 849 25.07 -5.5 22.1 63 -11.5 11.2
01:15 1020 30.12 849 25.07 -5.6 22 63 -11.5 11.4
01:20 1020 30.12 849 25.07 -5.6 22 62 -11.7 10.9
01:25 1020 30.12 849 25.07 -5.6 22 60 -12.1 10.2
01:30 1020 30.12 849 25.07 -5.6 21.9 60 -12.2 10.1
01:35 1020 30.12 849 25.07 -5.6 21.9 60 -12.3 9.8
01:40 1020 30.12 849 25.07 -5.6 21.9 60 -12.2 10
01:45 1020 30.12 849 25.07 -5.6 21.9 58 -12.6 9.3
01:50 1020 30.12 849 25.07 -5.6 21.9 59 -12.5 9.5
01:55 1020 30.12 849 25.07 -5.6 21.9 57 -12.8 9
02:00 1020 30.12 849 25.07 -5.6 21.8 57 -12.8 8.9
02:05 1020 30.12 849 25.07 -5.6 21.8 57 -13 8.7
02:10 1020 30.12 849 25.07 -5.6 21.9 57 -12.7 9.1
02:15 1020 30.12 849 25.07 -5.6 21.9 57 -12.8 8.9
02:20 1020 30.12 849 25.07 -5.6 21.9 57 -12.9 8.8
02:25 1020 30.12 849 25.07 -5.6 22 57 -12.7 9.1
02:30 1020 30.12 849 25.07 -5.6 21.9 57 -12.9 8.8
02:35 1020 30.12 849 25.07 -5.6 22 56 -13 8.5
02:40 1020 30.12 849 25.07 -5.6 22 57 -12.9 8.8
02:45 1020 30.12 850 25.1 -5.6 21.9 57 -12.9 8.7
02:50 1020 30.12 850 25.1 -5.6 22 57 -12.9 8.8
02:55 1020 30.12 850 25.1 -5.4 22.2 55 -13.1 8.4
03:00 1020 30.12 850 25.1 -5.4 22.3 56 -13 8.7
03:05 1020 30.12 850 25.1 -5.5 22.2 56 -12.8 8.9
03:10 1020 30.12 850 25.1 -5.6 22 58 -12.6 9.2
03:15 1020 30.12 850 25.1 -5.5 22.1 57 -12.8 9
03:20 1020 30.12 850 25.1 -5.5 22.1 57 -12.7 9.1
03:25 1020 30.12 850 25.1 -5.6 22 58 -12.6 9.4
03:30 1020 30.12 850 25.1 -5.6 21.9 60 -12.3 9.9
03:35 1020 30.12 850 25.1 -5.6 21.8 59 -12.5 9.6
03:40 1020 30.12 849 25.07 -5.7 21.8 59 -12.4 9.7
03:45 1020 30.12 849 25.07 -5.6 22 58 -12.6 9.3
03:50 1020 30.12 849 25.07 -5.6 21.9 58 -12.7 9.2
03:55 1020 30.12 849 25.07 -5.7 21.8 59 -12.5 9.4
04:00 1020 30.12 849 25.07 -5.6 21.9 58 -12.6 9.3
04:05 1020 30.12 849 25.07 -5.6 21.9 58 -12.7 9.1
04:10 1020 30.12 849 25.07 -5.6 21.9 58 -12.6 9.3
04:15 1020 30.12 849 25.07 -5.7 21.7 58 -12.7 9.2
04:20 1020 30.12 849 25.07 -5.7 21.7 59 -12.4 9.6
04:25 1020 30.12 849 25.07 -5.8 21.6 61 -12.2 10
04:30 1020 30.12 849 25.07 -5.8 21.5 61 -12.3 9.9
04:35 1020 30.12 850 25.1 -5.8 21.5 60 -12.3 9.8
04:40 1020 30.12 850 25.1 -5.8 21.5 60 -12.3 9.8
04:45 1020 30.12 850 25.1 -5.8 21.5 61 -12.3 9.9
04:50 1020 30.12 850 25.1 -5.9 21.5 62 -12 10.4
04:55 1020 30.12 850 25.1 -6 21.2 62 -12.1 10.3
05:00 1020 30.12 850 25.1 -6.1 21.1 62 -12.3 9.9
05:05 1020 30.12 850 25.1 -6.3 20.7 63 -12.1 10.2
05:10 1020 30.12 850 25.1 -6.4 20.4 64 -12.2 10.1
05:15 1020 30.12 850 25.1 -6.5 20.3 65 -12.1 10.3
05:20 1020 30.12 850 25.1 -6.6 20 66 -12 10.3
05:25 1020 30.12 850 25.1 -7 19.4 66 -12.3 9.9
05:30 1020 30.12 850 25.1 -7.1 19.3 68 -12.1 10.2
05:35 1020 30.12 850 25.1 -6.9 19.6 66 -12.2 10.1
05:40 1020 30.12 850 25.1 -6.7 19.9 67 -11.8 10.8
05:45 1020 30.12 850 25.1 -6.6 20.1 65 -12.2 10
05:50 1020 30.12 850 25.1 -6.5 20.2 63 -12.4 9.7
05:55 1020 30.12 850 25.1 -6.3 20.7 63 -12.2 10.1
06:00 1021 30.15 850 25.1 -6.1 21 62 -12.3 9.9
06:05 1021 30.15 850 25.1 -6 21.2 61 -12.3 9.9
06:10 1021 30.15 850 25.1 -6 21.3 62 -12 10.4
06:15 1021 30.15 850 25.1 -6 21.2 62 -12.1 10.2
06:20 1021 30.15 850 25.1 -6 21.2 64 -11.8 10.7
06:25 1021 30.15 850 25.1 -5.9 21.4 62 -12 10.4
06:30 1021 30.15 850 25.1 -5.9 21.5 63 -11.8 10.7
06:35 1021 30.15 850 25.1 -5.9 21.4 62 -12.1 10.2
06:40 1021 30.15 850 25.1 -5.8 21.6 61 -12.2 10.1
06:45 1021 30.15 850 25.1 -5.7 21.7 59 -12.4 9.6
06:50 1021 30.15 850 25.1 -5.7 21.8 58 -12.6 9.2
06:55 1021 30.15 850 25.1 -5.7 21.8 58 -12.6 9.3
07:00 1021 30.15 850 25.1 -5.6 21.8 59 -12.4 9.8
07:05 1021 30.15 850 25.1 -5.6 21.9 58 -12.7 9.1
07:10 1020 30.12 850 25.1 -5.6 21.9 58 -12.7 9.2
07:15 1021 30.15 850 25.1 -5.6 21.9 57 -12.8 9
07:20 1021 30.15 850 25.1 -5.6 22 58 -12.6 9.3
07:25 1021 30.15 850 25.1 -5.6 22 57 -12.8 9
07:30 1021 30.15 850 25.1 -5.5 22 59 -12.4 9.7
07:35 1021 30.15 850 25.1 -5.6 21.9 61 -12 10.4
07:40 1021 30.15 850 25.1 -5.8 21.6 62 -11.9 10.6
07:45 1021 30.15 850 25.1 -6 21.3 63 -12 10.5
07:50 1021 30.15 850 25.1 -6 21.2 62 -12.1 10.3
07:55 1021 30.15 850 25.1 -5.9 21.3 64 -11.8 10.8
08:00 1021 30.15 850 25.1 -5.9 21.4 64 -11.7 11
08:05 1021 30.15 850 25.1 -6 21.1 63 -12 10.4
08:10 1021 30.15 850 25.1 -6.1 20.9 64 -12 10.5
08:15 1021 30.15 850 25.1 -6.1 21 65 -11.8 10.8
08:20 1021 30.15 850 25.1 -6.1 20.9 63 -12 10.4
08:25 1021 30.15 850 25.1 -6.3 20.7 65 -11.9 10.5
08:30 1021 30.15 850 25.1 -6.1 20.9 63 -12.1 10.2
08:35 1021 30.15 850 25.1 -6 21.2 63 -12 10.3
08:40 1021 30.15 850 25.1 -5.9 21.4 64 -11.7 10.9
08:45 1021 30.15 850 25.1 -6 21.2 64 -11.7 11
08:50 1021 30.15 850 25.1 -5.9 21.4 65 -11.5 11.3
08:55 1021 30.15 850 25.1 -5.8 21.6 64 -11.5 11.4
09:00 1021 30.15 850 25.1 -5.7 21.8 64 -11.4 11.5
09:05 1021 30.15 850 25.1 -5.6 22 64 -11.4 11.4
09:10 1021 30.15 850 25.1 -5.5 22.1 64 -11.3 11.6
09:15 1021 30.15 850 25.1 -5.5 22.1 64 -11.3 11.6
09:20 1021 30.15 850 25.1 -5.5 22.2 63 -11.5 11.3
09:25 1021 30.15 850 25.1 -5.2 22.7 62 -11.3 11.6
09:30 1021 30.15 850 25.1 -5 23 62 -11.2 11.8
09:35 1021 30.15 850 25.1 -5 22.9 62 -11.2 11.8
09:40 1021 30.15 850 25.1 -5 23 63 -11.1 12
09:45 1021 30.15 851 25.13 -5 22.9 60 -11.6 11.1
09:50 1021 30.15 850 25.1 -5.3 22.5 60 -12 10.5
09:55 1021 30.15 851 25.13 -5.1 22.8 60 -11.7 10.9
10:00 1021 30.15 851 25.13 -4.6 23.6 57 -11.9 10.5
10:05 1021 30.15 851 25.13 -4.3 24.2 57 -11.6 11.1
10:10 1021 30.15 851 25.13 -4.2 24.4 58 -11.4 11.5
10:15 1021 30.15 851 25.13 -4.2 24.5 56 -11.6 11
10:20 1021 30.15 851 25.13 -4.3 24.2 57 -11.7 10.9
10:25 1022 30.18 851 25.13 -4.2 24.4 58 -11.3 11.7
10:30 1022 30.18 851 25.13 -4 24.7 58 -11.2 11.8
10:35 1022 30.18 851 25.13 -3.9 24.9 56 -11.6 11.2
10:40 1022 30.18 851 25.13 -3.7 25.3 54 -11.7 11
10:45 1022 30.18 851 25.13 -3.6 25.6 54 -11.7 10.9
10:50 1022 30.18 851 25.13 -3.6 25.6 53 -11.7 10.9
10:55 1022 30.18 851 25.13 -3.6 25.5 54 -11.7 11
11:00 1022 30.18 851 25.13 -3.4 25.9 54 -11.5 11.3
11:05 1022 30.18 851 25.13 -3.5 25.8 54 -11.6 11.2
11:10 1022 30.18 851 25.13 -3.5 25.6 52 -12 10.3
11:15 1022 30.18 851 25.13 -3.3 26.1 52 -11.9 10.6
11:20 1022 30.18 851 25.13 -3.2 26.2 51 -12.1 10.3
11:25 1022 30.18 851 25.13 -3 26.5 56 -10.5 13
11:30 1022 30.18 851 25.13 -3.8 25.2 60 -10.4 13.2
11:35 1022 30.18 851 25.13 -4.1 24.6 61 -10.5 13
11:40 1022 30.18 851 25.13 -3.9 24.9 59 -10.7 12.7
11:45 1022 30.18 851 25.13 -3.8 25.2 59 -10.8 12.6
11:50 1021 30.15 851 25.13 -3.9 24.9 58 -11.1 11.9
11:55 1021 30.15 851 25.13 -3.9 25 57 -11.2 11.8
12:00 1021 30.15 851 25.13 -3.6 25.5 55 -11.4 11.5
12:05 1021 30.15 851 25.13 -3 26.5 51 -11.9 10.6
12:10 1021 30.15 851 25.13 -3.2 26.2 53 -11.6 11.2
12:15 1021 30.15 851 25.13 -3.1 26.5 52 -11.6 11.1
12:20 1021 30.15 851 25.13 -3.2 26.2 51 -12 10.4
12:25 1021 30.15 851 25.13 -3.5 25.7 53 -11.8 10.8
12:30 1021 30.15 850 25.1 -3.2 26.3 50 -12.1 10.2
12:35 1021 30.15 850 25.1 -2.5 27.5 50 -11.6 11.2
12:40 1021 30.15 850 25.1 -2.6 27.4 48 -12.1 10.2
12:45 1021 30.15 850 25.1 -3.1 26.4 50 -12.1 10.2
12:50 1021 30.15 850 25.1 -3.3 26.1 51 -12.1 10.2
12:55 1021 30.15 850 25.1 -3.3 26.1 52 -11.9 10.6
13:00 1021 30.15 850 25.1 -2.4 27.6 48 -11.9 10.5
13:05 1021 30.15 850 25.1 -2.5 27.4 48 -12.1 10.3
13:10 1021 30.15 850 25.1 -3 26.7 49 -12.3 9.9
13:15 1021 30.15 850 25.1 -2.6 27.4 47 -12.3 9.9
13:20 1021 30.15 850 25.1 -2.9 26.7 48 -12.4 9.7
13:25 1021 30.15 850 25.1 -2.9 26.8 46 -12.9 8.8
13:30 1021 30.15 850 25.1 -2.7 27.1 48 -12.4 9.8
13:35 1021 30.15 850 25.1 -2.8 27 47 -12.5 9.6
13:40 1021 30.15 850 25.1 -1.9 28.6 44 -12.5 9.5
13:45 1021 30.15 850 25.1 -1.5 29.3 43 -12.6 9.4
13:50 1021 30.15 850 25.1 -2 28.4 42 -13.3 8
13:55 1021 30.15 850 25.1 -1.5 29.3 42 -12.9 8.8
14:00 1021 30.15 850 25.1 -2.2 28.1 45 -12.5 9.4
14:05 1021 30.15 850 25.1 -2.7 27.1 47 -12.5 9.4
14:10 1021 30.15 850 25.1 -2.8 26.9 44 -13.4 7.9
14:15 1021 30.15 850 25.1 -2.9 26.7 47 -12.8 8.9
14:20 1021 30.15 850 25.1 -2.8 26.9 46 -13 8.6
14:25 1021 30.15 850 25.1 -2.6 27.4 47 -12.5 9.6
14:30 1021 30.15 850 25.1 -2.4 27.6 45 -12.9 8.8
14:35 1021 30.15 850 25.1 -2.2 28.1 45 -12.7 9.2
14:40 1021 30.15 850 25.1 -0.9 30.3 39 -13.3 8.1
14:45 1021 30.15 850 25.1 -1 30.3 41 -12.7 9.2
14:50 1021 30.15 850 25.1 -1 30.1 39 -13.4 7.9
14:55 1021 30.15 850 25.1 -0.2 31.7 38 -12.8 8.9
15:00 1021 30.15 850 25.1 -0 31.9 38 -12.7 9.1
15:05 1021 30.15 850 25.1 0.1 32.2 37 -12.9 8.9
15:10 1021 30.15 850 25.1 -0.7 30.7 42 -12.2 10
15:15 1021 30.15 850 25.1 -0.8 30.6 41 -12.6 9.4
15:20 1021 30.15 850 25.1 -1 30.2 43 -12 10.4
15:25 1021 30.15 850 25.1 -1.9 28.7 45 -12.3 9.8
15:30 1021 30.15 850 25.1 -2 28.4 46 -12.2 10
15:35 1021 30.15 850 25.1 -2 28.5 43 -12.8 8.9
15:40 1021 30.15 850 25.1 -2.1 28.2 46 -12.4 9.8
15:45 1021 30.15 850 25.1 -2.4 27.6 46 -12.5 9.5
15:50 1021 30.15 850 25.1 -2.1 28.2 43 -13.1 8.4
15:55 1021 30.15 850 25.1 -2.3 27.8 45 -12.6 9.2
16:00 1021 30.15 850 25.1 -2.4 27.7 44 -13.1 8.5
16:05 1021 30.15 850 25.1 -2.6 27.3 47 -12.5 9.5
16:10 1021 30.15 850 25.1 -2.9 26.8 48 -12.4 9.6
16:15 1021 30.15 850 25.1 -3.1 26.4 48 -12.7 9.1
16:20 1021 30.15 850 25.1 -3.2 26.2 50 -12.2 10
16:25 1021 30.15 850 25.1 -3.3 26.1 49 -12.6 9.4
16:30 1021 30.15 850 25.1 -3.4 25.9 50 -12.3 9.8
16:35 1021 30.15 850 25.1 -3.3 26 49 -12.7 9.2
16:40 1021 30.15 850 25.1 -3.5 25.6 49 -12.8 8.9
16:45 1021 30.15 850 25.1 -3.7 25.3 50 -12.7 9.1
16:50 1021 30.15 850 25.1 -3.8 25.2 50 -12.8 8.9
16:55 1021 30.15 850 25.1 -3.9 24.9 52 -12.4 9.6
17:00 1021 30.15 850 25.1 -4.1 24.6 53 -12.4 9.7
17:05 1021 30.15 850 25.1 -4.3 24.3 55 -12.1 10.3
17:10 1021 30.15 850 25.1 -4.4 24 55 -12.3 9.9
17:15 1021 30.15 850 25.1 -4.7 23.6 55 -12.3 9.9
17:20 1021 30.15 850 25.1 -4.8 23.4 55 -12.5 9.5
17:25 1021 30.15 850 25.1 -4.8 23.3 56 -12.3 9.9
17:30 1021 30.15 850 25.1 -4.9 23.1 58 -12 10.5
17:35 1021 30.15 850 25.1 -5.1 22.7 56 -12.5 9.4
17:40 1021 30.15 850 25.1 -5.3 22.5 57 -12.5 9.4
17:45 1021 30.15 850 25.1 -5.5 22.1 59 -12.3 9.9
17:50 1021 30.15 850 25.1 -5.7 21.8 58 -12.6 9.3
17:55 1021 30.15 850 25.1 -5.7 21.8 59 -12.5 9.4
18:00 1021 30.15 850 25.1 -5.8 21.6 59 -12.5 9.4
18:05 1021 30.15 851 25.13 -6.1 21 60 -12.7 9.1
18:10 1021 30.15 851 25.13 -6.3 20.7 61 -12.6 9.3
18:15 1021 30.15 851 25.13 -6.4 20.5 60 -12.9 8.8
18:20 1021 30.15 851 25.13 -6.3 20.7 59 -13.1 8.4
18:25 1021 30.15 850 25.1 -6.3 20.6 60 -12.9 8.8
18:30 1021 30.15 850 25.1 -6.5 20.3 60 -13.1 8.4
18:35 1021 30.15 850 25.1 -6.5 20.4 58 -13.3 8
18:40 1021 30.15 850 25.1 -6.6 20.2 59 -13.2 8.2
18:45 1021 30.15 851 25.13 -6.6 20 60 -13.1 8.4
18:50 1021 30.15 851 25.13 -6.6 20.2 60 -13.1 8.4
18:55 1021 30.15 851 25.13 -6.6 20.1 61 -12.9 8.8
19:00 1021 30.15 851 25.13 -6.6 20.1 61 -13 8.6
19:05 1021 30.15 850 25.1 -6.4 20.5 60 -13 8.6
19:10 1021 30.15 850 25.1 -6.4 20.4 60 -13 8.6
19:15 1021 30.15 850 25.1 -7 19.4 62 -13 8.5
19:20 1021 30.15 850 25.1 -7.3 18.8 61 -13.6 7.6
19:25 1021 30.15 850 25.1 -7.2 19.1 62 -13.2 8.2
19:30 1021 30.15 851 25.13 -7.4 18.7 63 -13.3 8.1
19:35 1021 30.15 850 25.1 -7.7 18.1 66 -13.1 8.5
19:40 1021 30.15 850 25.1 -8.1 17.5 67 -13.2 8.2
19:45 1021 30.15 850 25.1 -8 17.6 66 -13.2 8.2
19:50 1021 30.15 850 25.1 -7.9 17.9 67 -13 8.5
19:55 1021 30.15 850 25.1 -7.5 18.4 65 -13.1 8.4
20:00 1021 30.15 850 25.1 -7.3 18.8 64 -13 8.6
20:05 1021 30.15 850 25.1 -7.3 18.8 64 -13 8.7
20:10 1021 30.15 850 25.1 -7.3 18.9 64 -13 8.6
20:15 1021 30.15 850 25.1 -7.2 19 63 -13.1 8.4
20:20 1021 30.15 850 25.1 -7.2 19.1 64 -13 8.7
20:25 1021 30.15 850 25.1 -7.1 19.3 62 -13.2 8.2
20:30 1021 30.15 850 25.1 -7 19.4 62 -13.1 8.5
20:35 1021 30.15 850 25.1 -7 19.4 62 -13.1 8.4
20:40 1021 30.15 850 25.1 -7 19.4 62 -13.1 8.5
20:45 1021 30.15 850 25.1 -7 19.4 62 -13.1 8.5
20:50 1021 30.15 850 25.1 -7.1 19.3 62 -13.1 8.4
20:55 1021 30.15 850 25.1 -7.3 18.9 63 -13.1 8.5
21:00 1021 30.15 850 25.1 -7.4 18.8 64 -13.1 8.4
21:05 1021 30.15 850 25.1 -7.2 19 63 -13.1 8.4
21:10 1021 30.15 850 25.1 -7.2 19 63 -13.2 8.3
21:15 1021 30.15 850 25.1 -7.3 18.8 64 -13 8.5
21:20 1021 30.15 850 25.1 -7.3 18.9 63 -13.3 8.1
21:25 1021 30.15 850 25.1 -7.2 19.1 62 -13.3 8.1
21:30 1021 30.15 850 25.1 -7 19.4 63 -12.8 8.9
21:35 1021 30.15 850 25.1 -6.9 19.5 64 -12.6 9.3
21:40 1021 30.15 850 25.1 -6.8 19.7 65 -12.4 9.7
21:45 1021 30.15 850 25.1 -6.9 19.5 63 -12.9 8.8
21:50 1021 30.15 850 25.1 -7 19.5 64 -12.8 9
21:55 1021 30.15 850 25.1 -6.9 19.6 63 -12.7 9.1
22:00 1021 30.15 850 25.1 -6.8 19.7 63 -12.8 8.9
22:05 1021 30.15 850 25.1 -6.8 19.7 61 -13 8.6
22:10 1021 30.15 850 25.1 -6.8 19.8 61 -13.1 8.5
22:15 1021 30.15 850 25.1 -6.8 19.8 61 -13.1 8.4
22:20 1021 30.15 850 25.1 -6.7 19.9 61 -13 8.6
22:25 1021 30.15 850 25.1 -6.7 20 61 -13.1 8.5
22:30 1021 30.15 850 25.1 -6.7 20 62 -12.8 9
22:35 1021 30.15 850 25.1 -6.7 20 60 -13.3 8.1
22:40 1021 30.15 850 25.1 -6.7 19.9 63 -12.6 9.4
22:45 1021 30.15 850 25.1 -7 19.5 66 -12.4 9.7
22:50 1021 30.15 850 25.1 -7.2 19.1 64 -12.9 8.8
22:55 1021 30.15 850 25.1 -7.1 19.3 62 -13.2 8.2
23:00 1021 30.15 850 25.1 -7.1 19.3 63 -12.9 8.8
23:05 1021 30.15 850 25.1 -7.3 18.9 66 -12.6 9.2
23:10 1021 30.15 850 25.1 -7.5 18.4 66 -12.9 8.8
23:15 1021 30.15 850 25.1 -7.7 18.2 67 -12.7 9.1
23:20 1021 30.15 850 25.1 -7.8 17.9 66 -13.1 8.5
23:25 1021 30.15 850 25.1 -7.9 17.7 68 -12.8 9
23:30 1021 30.15 850 25.1 -8 17.6 67 -13.1 8.3
23:35 1021 30.15 850 25.1 -7.7 18.2 64 -13.4 7.9
23:40 1021 30.15 850 25.1 -7.4 18.6 63 -13.3 8.1
23:45 1021 30.15 850 25.1 -7.4 18.8 63 -13.3 8.1
23:50 1021 30.15 850 25.1 -7.4 18.7 63 -13.2 8.2
23:55 1021 30.15 850 25.1 -7.5 18.4 64 -13.2 8.2
24:00 1021 30.15 850 25.1 -7.8 18 66 -13 8.5